Time;durP1;ratioP1;P1;durP2;ratioP2;P2;SDS_P1;SDS_P2;PMS_P1;PMS_P2;Temp;Humidity;BMP_temperature;BMP_pressure;BME280_temperature;BME280_humidity;BME280_pressure;Samples;Min_cycle;Max_cycle;Signal;HPM_P1;HPM_P2
2022/06/20 00:00:04;;;;;;;11.60;3.02;;;;;;;20.24;75.29;100074.15;4949264;59;1140978;-73
2022/06/20 00:05:18;;;;;;;11.50;3.20;;;;;;;20.21;75.37;100087.13;4921880;59;1141156;-72
2022/06/20 00:10:28;;;;;;;7.92;2.85;;;;;;;19.85;75.72;100086.66;5048574;57;1141179;-72
2022/06/20 00:15:38;;;;;;;9.08;2.42;;;;;;;19.72;75.77;100085.66;5141378;57;1139068;-71
2022/06/20 00:20:45;;;;;;;5.60;3.05;;;;;;;19.64;75.95;100116.95;5141356;57;1139085;-72
2022/06/20 00:25:51;;;;;;;8.00;3.40;;;;;;;19.50;75.80;100122.34;5132703;56;1139072;-72
2022/06/20 00:30:57;;;;;;;6.12;2.80;;;;;;;19.46;76.11;100141.13;5141296;56;1139100;-71
2022/06/20 00:36:03;;;;;;;10.80;3.77;;;;;;;19.44;76.75;100117.16;5141249;56;1139109;-71
2022/06/20 00:41:18;;;;;;;6.62;3.00;;;;;;;19.44;76.80;100123.88;5035231;57;1141167;-71
2022/06/20 00:46:47;;;;;;;6.00;2.20;;;;;;;19.32;76.49;100160.22;5141028;57;1136974;-72
2022/06/20 00:52:00;;;;;;;10.50;3.05;;;;;;;19.20;77.50;100183.14;4990759;58;1137142;-72
2022/06/20 00:57:13;;;;;;;6.00;3.75;;;;;;;19.13;77.05;100176.84;5026595;58;1139095;-72
2022/06/20 01:02:26;;;;;;;9.88;3.58;;;;;;;19.09;78.14;100152.77;4981899;58;1137025;-71
2022/06/20 01:07:45;;;;;;;6.47;3.30;;;;;;;19.23;78.27;100140.72;4893338;58;1136987;-72
2022/06/20 01:13:07;;;;;;;17.98;4.08;;;;;;;19.18;78.04;100105.58;5147342;57;1134982;-71
2022/06/20 01:18:20;;;;;;;6.63;3.97;;;;;;;19.05;78.32;100097.34;5150484;57;1141094;-72
2022/06/20 01:23:56;;;;;;;14.83;4.05;;;;;;;18.99;79.13;100112.81;5144279;57;1139150;-71
2022/06/20 01:29:05;;;;;;;11.00;3.50;;;;;;;19.07;79.82;100131.51;5041565;58;1141259;-72
2022/06/20 01:34:15;;;;;;;7.80;3.02;;;;;;;19.10;78.73;100117.71;5066453;58;1141126;-72
2022/06/20 01:39:23;;;;;;;11.85;3.37;;;;;;;18.54;78.54;100074.87;5038167;58;1139083;-70
2022/06/20 01:44:31;;;;;;;9.65;4.28;;;;;;;18.54;78.54;100074.87;5080672;57;1141129;-73
2022/06/20 01:49:39;;;;;;;9.68;3.20;;;;;;;18.32;79.02;100180.99;5119881;57;1139312;-72
2022/06/20 01:54:57;;;;;;;8.53;2.77;;;;;;;18.47;79.45;100240.81;5062083;58;1139235;-73
2022/06/20 02:00:07;;;;;;;8.48;2.40;;;;;;;18.63;78.08;100239.08;5061755;58;1138997;-72
2022/06/20 02:05:18;;;;;;;14.80;4.10;;;;;;;18.64;78.11;100181.81;5097453;57;1139048;-72
2022/06/20 02:10:29;;;;;;;7.20;2.85;;;;;;;18.41;77.56;100193.30;5150000;57;1141226;-72
2022/06/20 02:15:36;;;;;;;5.47;2.50;;;;;;;18.30;78.21;100138.83;5115350;57;1139098;-72
2022/06/20 02:20:46;;;;;;;8.00;2.15;;;;;;;18.09;77.22;100159.53;5149984;57;1139071;-72
2022/06/20 02:25:55;;;;;;;6.75;2.08;;;;;;;17.91;76.96;100192.41;5149945;57;1138834;-72
2022/06/20 02:31:01;;;;;;;6.97;2.10;;;;;;;17.81;77.58;100181.92;5096631;57;1139134;-72
2022/06/20 02:36:08;;;;;;;7.37;2.62;;;;;;;17.68;78.22;100180.31;5019187;59;1139170;-71
2022/06/20 02:41:18;;;;;;;8.23;2.73;;;;;;;17.57;78.36;100156.56;4946189;59;1139091;-71
2022/06/20 02:46:28;;;;;;;15.00;3.33;;;;;;;17.36;78.97;100163.83;4983459;59;1139188;-72
2022/06/20 02:51:41;;;;;;;8.75;2.75;;;;;;;17.40;79.52;100167.01;5064948;57;1141168;-72
2022/06/20 02:56:54;;;;;;;8.53;3.07;;;;;;;17.42;79.94;100152.94;5065702;57;1136978;-72
2022/06/20 03:02:12;;;;;;;10.90;3.70;;;;;;;17.29;79.80;100141.45;5065172;58;1136979;-72
2022/06/20 03:07:23;;;;;;;7.30;3.00;;;;;;;17.31;80.46;100182.22;5065082;58;1139067;-72
2022/06/20 03:12:30;;;;;;;13.85;3.35;;;;;;;17.36;80.59;100161.16;5067138;57;1136958;-72
2022/06/20 03:17:37;;;;;;;8.60;3.60;;;;;;;17.29;80.44;100184.22;5048781;58;1139105;-71
2022/06/20 03:22:59;;;;;;;8.10;3.83;;;;;;;17.18;81.35;100132.47;5065893;57;1136988;-72
2022/06/20 03:28:05;;;;;;;9.90;2.90;;;;;;;17.20;81.51;100158.02;4985134;58;1137191;-73
2022/06/20 03:33:21;;;;;;;9.33;3.40;;;;;;;17.19;81.02;100128.80;4969256;58;1137130;-72
2022/06/20 03:38:21;;;;;;;7.77;2.80;;;;;;;16.95;81.58;100062.91;4903454;59;1137111;-72
2022/06/20 03:43:28;;;;;;;6.63;2.97;;;;;;;16.81;81.64;99993.63;4954039;58;1134968;-72
2022/06/20 03:48:44;;;;;;;7.23;2.87;;;;;;;16.67;82.23;100019.72;4954962;58;1137306;-72
2022/06/20 03:54:09;;;;;;;4.27;3.13;;;;;;;16.62;82.39;100063.94;4872711;59;1138968;-72
2022/06/20 03:59:47;;;;;;;6.47;2.57;;;;;;;16.51;82.68;100155.86;4873232;59;1139061;-72
2022/06/20 04:05:03;;;;;;;6.33;2.97;;;;;;;16.47;83.25;100162.05;4903089;58;1139286;-72
2022/06/20 04:15:56;;;;;;;3.53;2.70;;;;;;;16.16;85.20;100284.58;4899269;59;1139098;-72
2022/06/20 04:21:18;;;;;;;15.33;3.17;;;;;;;15.96;85.89;100308.48;5009141;57;1139398;-72
2022/06/20 04:26:44;;;;;;;2.37;2.17;;;;;;;15.90;86.59;100314.44;5057621;58;1141023;-72
2022/06/20 04:32:07;;;;;;;6.00;3.53;;;;;;;15.80;87.60;100313.22;5057788;58;1139058;-72
2022/06/20 04:37:34;;;;;;;6.83;3.00;;;;;;;15.99;87.76;100231.31;5068996;57;1136951;-71
2022/06/20 04:42:53;;;;;;;5.27;2.90;;;;;;;16.31;88.04;100187.39;5041230;57;1137008;-72
2022/06/20 04:48:07;;;;;;;6.10;2.73;;;;;;;16.57;86.81;100155.20;5049496;57;1136268;-72
2022/06/20 04:53:18;;;;;;;6.80;3.00;;;;;;;16.57;86.28;100125.00;4949443;59;1136916;-71
2022/06/20 04:58:34;;;;;;;4.80;2.30;;;;;;;16.46;86.11;100093.64;4943098;59;1137309;-72
2022/06/20 05:03:43;;;;;;;5.80;2.87;;;;;;;16.41;87.42;100006.55;4953538;59;1135138;-71
2022/06/20 05:08:58;;;;;;;3.60;2.63;;;;;;;16.28;87.57;100008.08;4953618;59;1139070;-72
2022/06/20 05:14:21;;;;;;;6.50;2.73;;;;;;;16.26;87.37;100102.13;4953541;58;1139067;-71
2022/06/20 05:19:39;;;;;;;4.17;3.77;;;;;;;16.17;86.54;100162.17;4879009;59;1139097;-72
2022/06/20 05:24:46;;;;;;;3.53;3.23;;;;;;;16.21;87.98;100078.61;4921461;59;1139064;-72
2022/06/20 05:30:00;;;;;;;3.67;3.33;;;;;;;16.29;87.14;100055.95;4877094;60;1139369;-73
2022/06/20 05:35:18;;;;;;;8.23;3.53;;;;;;;16.35;87.09;100108.63;4838537;60;1138989;-72
2022/06/20 05:40:31;;;;;;;9.47;3.83;;;;;;;16.34;87.00;100066.12;4958362;58;1139202;-72
2022/06/20 05:45:37;;;;;;;4.50;3.33;;;;;;;16.34;87.59;100077.64;4904852;58;1139500;-72
2022/06/20 05:50:53;;;;;;;5.07;3.20;;;;;;;16.44;87.62;100107.66;4866522;59;1139065;-71
2022/06/20 05:56:03;;;;;;;3.73;3.43;;;;;;;16.54;87.58;100102.14;5012778;57;1139070;-73
2022/06/20 06:01:16;;;;;;;5.10;3.93;;;;;;;16.72;87.75;100093.48;4970002;59;1139338;-72
2022/06/20 06:06:24;;;;;;;5.40;3.50;;;;;;;16.80;87.83;100061.94;5057846;57;1139284;-72
2022/06/20 06:11:37;;;;;;;5.64;3.58;;;;;;;16.77;87.17;100051.59;5057779;57;1138984;-72
2022/06/20 06:17:01;;;;;;;;;;;;;;;16.80;86.98;100083.31;5061338;57;1139058;-73
2022/06/20 06:22:29;;;;;;;3.15;2.95;;;;;;;16.74;86.40;100081.30;5060697;57;976411;-73
2022/06/20 06:27:37;;;;;;;3.13;2.87;;;;;;;16.77;86.50;100071.13;5057747;57;1134847;-72
2022/06/20 06:32:48;;;;;;;7.73;3.70;;;;;;;16.81;86.91;100081.77;5057670;57;1136992;-72
2022/06/20 06:38:01;;;;;;;10.13;3.70;;;;;;;16.86;87.07;100094.13;5057688;57;1137290;-72
2022/06/20 06:43:17;;;;;;;5.70;3.27;;;;;;;16.94;86.94;100093.30;5057898;57;1139034;-72
2022/06/20 06:48:28;;;;;;;3.77;3.37;;;;;;;16.91;86.18;100066.08;5056140;57;1136929;-72
2022/06/20 06:53:46;;;;;;;3.60;3.33;;;;;;;16.91;86.96;100081.61;5057830;57;1137149;-72
2022/06/20 06:59:14;;;;;;;9.73;4.20;;;;;;;17.02;87.03;100089.75;5058348;57;1136926;-72
2022/06/20 07:04:39;;;;;;;4.23;3.90;;;;;;;17.10;87.15;100095.09;5055004;58;1139205;-73
2022/06/20 07:09:52;;;;;;;4.30;3.83;;;;;;;17.09;86.63;100094.26;4966689;57;1139130;-73
2022/06/20 07:15:19;;;;;;;5.30;4.40;;;;;;;17.09;87.07;100095.59;4977647;58;1139299;-73
2022/06/20 07:20:32;;;;;;;4.93;4.40;;;;;;;17.10;87.54;100075.89;4967927;58;1138943;-72
2022/06/20 07:25:45;;;;;;;5.67;4.27;;;;;;;17.11;87.58;100091.42;4966982;58;1139228;-73
2022/06/20 07:31:01;;;;;;;6.50;4.23;;;;;;;17.09;87.40;100118.81;4967381;58;1139156;-74
2022/06/20 07:36:10;;;;;;;5.70;5.10;;;;;;;17.15;88.08;100115.44;4967449;58;1139067;-73
2022/06/20 07:41:27;;;;;;;7.17;3.87;;;;;;;17.18;87.43;100122.61;5041389;57;1139005;-73
2022/06/20 07:46:46;;;;;;;10.53;5.30;;;;;;;17.20;86.92;100139.81;5061930;57;1139574;-74
2022/06/20 07:51:56;;;;;;;7.80;5.37;;;;;;;17.19;87.58;100126.95;5062158;57;1141346;-74
2022/06/20 07:57:15;;;;;;;6.60;4.43;;;;;;;17.11;87.47;100164.91;4936291;58;1139317;-73
2022/06/20 08:02:43;;;;;;;6.28;4.42;;;;;;;16.92;87.69;100171.43;5093343;57;1139062;-73
2022/06/20 08:08:01;;;;;;;8.50;4.53;;;;;;;16.76;88.30;100167.43;5038604;58;1136981;-74
2022/06/20 08:13:27;;;;;;;6.23;5.53;;;;;;;16.66;88.39;100228.16;5121237;57;1136961;-73
2022/06/20 08:18:33;;;;;;;9.90;7.83;;;;;;;16.45;88.91;100164.55;5118380;57;1136987;-73
2022/06/20 08:23:49;;;;;;;7.33;5.47;;;;;;;16.35;89.79;100222.06;5121410;57;1137265;-73
2022/06/20 08:29:01;;;;;;;5.40;4.90;;;;;;;16.30;91.69;100313.81;5109613;57;1137369;-74
2022/06/20 08:34:34;;;;;;;5.00;4.13;;;;;;;16.07;92.85;100226.83;5207149;56;1137259;-73
2022/06/20 08:39:56;;;;;;;7.60;5.20;;;;;;;15.76;97.57;100339.02;5120893;57;1139090;-74
2022/06/20 08:45:37;;;;;;;12.80;4.30;;;;;;;15.37;100.00;100437.14;5206587;56;1139022;-73
2022/06/20 08:51:19;;;;;;;8.70;5.13;;;;;;;15.18;100.00;100409.30;5214018;56;1143397;-73
2022/06/20 08:56:53;;;;;;;9.37;4.37;;;;;;;15.23;100.00;100096.66;5214561;56;1141133;-74
2022/06/20 09:02:29;;;;;;;4.47;4.10;;;;;;;15.31;100.00;99955.45;5186142;56;1141201;-74
2022/06/20 09:07:48;;;;;;;8.20;3.73;;;;;;;15.46;100.00;100109.73;5075276;57;1139021;-73
2022/06/20 09:13:28;;;;;;;3.40;2.63;;;;;;;15.91;100.00;100048.56;5075508;57;1141145;-73
2022/06/20 09:18:59;;;;;;;8.00;2.97;;;;;;;16.22;100.00;100018.08;5056919;57;1139024;-73
2022/06/20 09:24:15;;;;;;;3.60;3.30;;;;;;;16.38;100.00;100008.72;5074370;57;1139051;-73
2022/06/20 09:29:40;;;;;;;3.10;2.80;;;;;;;16.48;100.00;100010.73;5052289;57;1139395;-72
2022/06/20 09:35:17;;;;;;;3.13;2.37;;;;;;;16.38;100.00;100018.89;5172926;56;1141070;-72
2022/06/20 09:41:02;;;;;;;11.83;2.50;;;;;;;16.47;100.00;99993.87;5194231;55;1141564;-72
2022/06/20 09:46:40;;;;;;;3.33;3.00;;;;;;;16.55;100.00;99989.01;5159259;56;1141068;-71
2022/06/20 09:52:05;;;;;;;2.73;2.53;;;;;;;16.54;100.00;100064.77;5214278;56;1139074;-72
2022/06/20 09:57:56;;;;;;;2.73;2.53;;;;;;;16.58;100.00;100051.42;5214407;56;1141443;-71
2022/06/20 10:03:09;;;;;;;3.10;2.80;;;;;;;16.51;100.00;99941.80;5158980;57;1141125;-72
2022/06/20 10:08:51;;;;;;;3.90;2.53;;;;;;;16.42;100.00;99968.69;5124291;57;1136969;-72
2022/06/20 10:14:26;;;;;;;5.23;2.93;;;;;;;16.42;100.00;99955.34;5158601;57;1136925;-72
2022/06/20 10:20:16;;;;;;;2.50;2.40;;;;;;;16.37;100.00;99967.85;5149864;57;1136965;-71
2022/06/20 10:25:47;;;;;;;3.10;2.80;;;;;;;16.39;100.00;99944.50;5142691;57;1139038;-72
2022/06/20 10:31:07;;;;;;;2.90;2.40;;;;;;;16.64;100.00;100016.58;5044969;58;1139048;-72
2022/06/20 10:36:23;;;;;;;5.13;3.57;;;;;;;16.92;100.00;99959.56;5040059;58;1141157;-71
2022/06/20 10:41:54;;;;;;;2.70;2.50;;;;;;;16.92;100.00;99959.56;5053780;58;1139080;-71
2022/06/20 10:47:19;;;;;;;7.60;4.03;;;;;;;16.89;100.00;99988.78;5053765;58;1139232;-72
2022/06/20 10:52:52;;;;;;;8.67;3.03;;;;;;;16.90;100.00;100011.82;5056831;57;1139247;-72
2022/06/20 10:58:25;;;;;;;6.40;2.67;;;;;;;16.85;100.00;100042.21;5158467;57;1141129;-72
2022/06/20 11:03:37;;;;;;;2.70;2.50;;;;;;;16.81;100.00;100064.91;5149955;57;1138968;-72
2022/06/20 11:09:16;;;;;;;7.23;3.00;;;;;;;16.75;100.00;100001.52;5145281;57;1139092;-73
2022/06/20 11:14:53;;;;;;;2.40;2.20;;;;;;;16.77;100.00;99922.06;5161003;56;1138998;-73
2022/06/20 11:20:19;;;;;;;4.20;2.77;;;;;;;16.74;100.00;99917.91;5116753;56;1134922;-73
2022/06/20 11:25:50;;;;;;;4.17;3.08;;;;;;;16.74;100.00;99935.26;5122969;57;1139065;-73
2022/06/20 11:31:20;;;;;;;5.10;3.47;;;;;;;16.74;100.00;99999.85;5157736;56;1139029;-73
2022/06/20 11:36:46;;;;;;;2.43;2.20;;;;;;;16.71;100.00;100029.56;5170012;56;1139055;-73
2022/06/20 11:42:01;;;;;;;2.60;2.50;;;;;;;16.83;100.00;100023.68;5143230;57;1141132;-73
2022/06/20 11:47:21;;;;;;;6.03;4.33;;;;;;;16.83;100.00;100044.22;5149562;57;1141190;-73
2022/06/20 11:52:41;;;;;;;7.40;4.50;;;;;;;16.72;100.00;100064.11;5140476;57;1141085;-73
2022/06/20 11:57:57;;;;;;;4.57;2.57;;;;;;;16.62;100.00;100047.41;5211495;56;1141123;-73
2022/06/20 12:03:16;;;;;;;2.50;2.30;;;;;;;16.68;100.00;100035.23;5214316;56;1141030;-73
2022/06/20 12:08:38;;;;;;;3.83;3.53;;;;;;;16.71;100.00;100031.73;5214684;56;1141117;-73
2022/06/20 12:14:00;;;;;;;6.27;2.60;;;;;;;16.80;100.00;100025.89;5139292;56;1139048;-72
2022/06/20 12:24:51;;;;;;;4.33;3.87;;;;;;;16.83;100.00;100042.88;5007108;57;1139142;-73
2022/06/20 12:29:57;;;;;;;6.00;3.80;;;;;;;16.69;100.00;100059.60;4993957;56;1139333;-73
2022/06/20 12:35:19;;;;;;;5.43;4.23;;;;;;;16.60;100.00;100061.44;5072890;57;1139034;-73
2022/06/20 12:40:31;;;;;;;10.13;3.73;;;;;;;16.73;100.00;100025.72;5031450;58;1141124;-73
2022/06/20 12:45:56;;;;;;;4.57;4.17;;;;;;;16.78;100.00;100030.56;5050471;56;1143167;-73
2022/06/20 12:51:43;;;;;;;5.83;3.40;;;;;;;16.60;100.00;100036.56;5213691;56;1141147;-73
2022/06/20 12:57:27;;;;;;;5.66;4.16;;;;;;;16.40;100.00;100056.09;5214394;56;1141242;-74
2022/06/20 13:02:53;;;;;;;7.60;3.70;;;;;;;16.30;100.00;100040.77;5221277;56;1141090;-73
2022/06/20 13:08:23;;;;;;;4.77;4.20;;;;;;;16.16;100.00;100041.77;5214746;56;1141110;-72
2022/06/20 13:19:09;;;;;;;4.37;4.07;;;;;;;15.94;100.00;100063.75;5293061;55;46317;-72
2022/06/20 13:24:41;;;;;;;3.00;2.80;;;;;;;15.77;100.00;100089.55;5123991;57;1135314;-72
2022/06/20 13:30:16;;;;;;;4.33;2.93;;;;;;;15.62;100.00;100083.66;5050327;57;1139263;-73
2022/06/20 13:35:53;;;;;;;2.80;2.60;;;;;;;15.37;100.00;100090.22;5067041;58;1139091;-73
2022/06/20 13:41:19;;;;;;;2.13;2.03;;;;;;;15.23;100.00;100097.48;5091011;56;1141166;-73
2022/06/20 13:46:38;;;;;;;1.60;1.60;;;;;;;15.23;100.00;100080.17;5146211;57;1141149;-73
2022/06/20 13:51:53;;;;;;;1.70;1.37;;;;;;;15.30;100.00;100089.67;5126512;57;1141373;-73
2022/06/20 13:57:16;;;;;;;1.33;1.33;;;;;;;15.17;100.00;100082.62;5087683;58;1141212;-73
2022/06/20 14:02:39;;;;;;;2.10;2.00;;;;;;;15.08;100.00;100095.08;5055697;58;1141433;-73
2022/06/20 14:07:52;;;;;;;1.87;1.80;;;;;;;14.98;100.00;100092.50;5024494;58;1141042;-72
2022/06/20 14:13:08;;;;;;;1.37;1.37;;;;;;;14.87;100.00;100078.63;5046907;57;1141124;-73
2022/06/20 14:18:29;;;;;;;3.20;1.30;;;;;;;14.86;100.00;100098.26;5147979;57;1141124;-72
2022/06/20 14:23:38;;;;;;;1.97;1.70;;;;;;;14.70;100.00;100150.39;5146080;57;1141108;-73
2022/06/20 14:28:49;;;;;;;1.30;1.30;;;;;;;14.66;100.00;100131.75;5131042;57;1141459;-73
2022/06/20 14:34:13;;;;;;;1.47;1.23;;;;;;;14.72;100.00;100130.28;5119798;57;1141333;-73
2022/06/20 14:39:34;;;;;;;0.83;0.83;;;;;;;14.75;100.00;100129.48;5128213;57;1139350;-73
2022/06/20 14:44:54;;;;;;;2.43;0.97;;;;;;;14.74;100.00;100120.31;5115841;57;1139283;-73
2022/06/20 14:50:13;;;;;;;0.60;0.60;;;;;;;14.61;100.00;100120.72;5106737;57;1139227;-73
2022/06/20 14:55:40;;;;;;;1.60;0.83;;;;;;;14.57;100.00;100121.17;5123025;57;1138958;-73
2022/06/20 15:01:12;;;;;;;0.60;0.60;;;;;;;14.58;100.00;100118.37;4927609;59;1137250;-73
2022/06/20 15:06:31;;;;;;;0.80;0.80;;;;;;;14.60;100.00;100116.88;4968916;58;1141192;-72
2022/06/20 15:12:03;;;;;;;1.37;1.27;;;;;;;14.55;100.00;100129.31;5065049;57;1141122;-72
2022/06/20 15:17:30;;;;;;;1.37;1.30;;;;;;;14.61;100.00;100103.42;5064379;57;1141098;-72
2022/06/20 15:22:55;;;;;;;0.93;0.93;;;;;;;14.67;100.00;100081.98;5050786;58;1141382;-73
2022/06/20 15:28:08;;;;;;;0.87;0.87;;;;;;;14.81;100.00;100070.80;5053482;58;1141434;-72
2022/06/20 15:33:32;;;;;;;1.32;0.85;;;;;;;15.01;100.00;100064.73;5075554;57;1141189;-73
2022/06/20 15:38:54;;;;;;;1.60;0.80;;;;;;;15.02;100.00;100091.70;5129204;57;1141131;-72
2022/06/20 15:44:25;;;;;;;1.73;0.97;;;;;;;14.96;100.00;100065.72;5144573;57;1141166;-73
2022/06/20 15:49:44;;;;;;;1.30;0.80;;;;;;;14.92;100.00;100053.21;5171608;56;1138915;-72
2022/06/20 15:55:14;;;;;;;1.63;1.63;;;;;;;14.83;100.00;100035.50;5241718;56;1139075;-72
2022/06/20 16:00:27;;;;;;;1.03;1.03;;;;;;;14.83;100.00;100020.86;5246621;56;1138997;-73
2022/06/20 16:05:54;;;;;;;3.00;1.60;;;;;;;14.91;100.00;100016.92;5237071;56;1139031;-72
2022/06/20 16:11:07;;;;;;;2.20;2.10;;;;;;;14.99;100.00;99981.00;5159992;57;1136945;-73
2022/06/20 16:16:17;;;;;;;1.80;1.50;;;;;;;15.23;100.00;99981.59;5167236;56;1138976;-72
2022/06/20 16:21:27;;;;;;;5.30;3.02;;;;;;;15.11;100.00;100012.20;5226587;56;1139021;-73
2022/06/20 16:26:44;;;;;;;2.97;2.60;;;;;;;15.00;100.00;100016.45;5218951;56;1141181;-73
2022/06/20 16:31:54;;;;;;;4.73;3.00;;;;;;;14.91;100.00;100017.42;5211825;56;1141095;-74
2022/06/20 16:37:16;;;;;;;4.03;2.30;;;;;;;14.83;100.00;99998.73;5090997;57;1141015;-72
2022/06/20 16:43:01;;;;;;;2.20;2.10;;;;;;;14.80;100.00;100019.03;5027324;57;1139021;-73
2022/06/20 16:48:44;;;;;;;17.40;15.83;;;;;;;14.73;100.00;100032.12;4976416;58;1141099;-73
2022/06/20 16:54:29;;;;;;;2.93;2.70;;;;;;;14.61;100.00;100047.53;5148480;56;1145366;-73
2022/06/20 16:59:52;;;;;;;2.37;2.27;;;;;;;14.51;100.00;100056.62;5083453;57;1138321;-73
2022/06/20 17:05:14;;;;;;;4.93;2.80;;;;;;;14.35;100.00;100066.61;5099514;57;1139238;-74
2022/06/20 17:10:44;;;;;;;3.85;3.55;;;;;;;14.46;100.00;100060.23;5204905;56;1138943;-74
2022/06/20 17:16:24;;;;;;;2.52;2.27;;;;;;;14.48;100.00;100059.58;5152414;56;1139068;-74
2022/06/20 17:21:50;;;;;;;4.50;2.60;;;;;;;14.45;100.00;100067.37;5019750;58;1141285;-73
2022/06/20 17:27:35;;;;;;;2.70;2.50;;;;;;;14.45;100.00;100079.34;5077951;57;1141251;-72
2022/06/20 17:32:49;;;;;;;;;;;;;;;14.43;100.00;100076.84;5181291;56;1141402;-73
2022/06/20 17:38:42;;;;;;;3.27;2.62;;;;;;;14.40;100.00;100062.50;5207686;56;978520;-73
2022/06/20 17:43:55;;;;;;;3.03;1.97;;;;;;;14.36;100.00;100070.94;5226881;56;1139069;-74
2022/06/20 17:49:17;;;;;;;2.40;2.20;;;;;;;14.36;100.00;100066.42;5225342;56;1141126;-72
2022/06/20 17:54:45;;;;;;;3.20;2.27;;;;;;;14.39;100.00;100082.58;5226469;56;1141246;-73
2022/06/20 18:00:06;;;;;;;2.73;2.37;;;;;;;14.39;100.00;100063.95;5198377;56;1138943;-72
2022/06/20 18:05:26;;;;;;;2.63;2.43;;;;;;;14.48;100.00;100056.42;5209093;56;1139022;-72
2022/06/20 18:10:39;;;;;;;2.70;2.50;;;;;;;14.49;100.00;100059.92;5227678;56;1139074;-72
2022/06/20 18:15:47;;;;;;;;;;;;;;;14.46;100.00;100054.91;5176020;56;1139066;-72
2022/06/20 18:21:05;;;;;;;4.77;2.10;;;;;;;14.36;100.00;100062.44;5197116;56;976574;-73
2022/06/20 18:26:34;;;;;;;3.03;2.40;;;;;;;14.31;100.00;100066.07;5207942;56;1137020;-73
2022/06/20 18:31:44;;;;;;;3.77;2.77;;;;;;;14.26;100.00;100064.85;5191340;56;1140997;-73
2022/06/20 18:36:51;;;;;;;2.60;2.40;;;;;;;14.17;100.00;100076.42;5190073;56;1141181;-73
2022/06/20 18:42:00;;;;;;;2.27;2.13;;;;;;;14.11;100.00;100090.31;5190367;56;1141267;-71
2022/06/20 18:47:28;;;;;;;3.17;2.70;;;;;;;14.08;100.00;100094.11;5167040;56;1141262;-72
2022/06/20 18:52:53;;;;;;;2.53;2.43;;;;;;;14.06;100.00;100097.41;5177278;56;1141605;-72
2022/06/20 18:58:22;;;;;;;2.10;2.00;;;;;;;14.01;100.00;100100.55;5152308;56;1141108;-73
2022/06/20 19:03:54;;;;;;;3.77;2.70;;;;;;;13.99;100.00;100099.02;5155440;56;1141143;-73
2022/06/20 19:09:22;;;;;;;6.27;2.70;;;;;;;13.94;100.00;100099.95;5173513;56;1141475;-73
2022/06/20 19:14:49;;;;;;;5.13;2.50;;;;;;;13.88;100.00;100092.11;5170532;56;1141351;-74
2022/06/20 19:20:05;;;;;;;3.70;2.63;;;;;;;13.75;100.00;100066.88;5134156;56;1141132;-73
2022/06/20 19:25:16;;;;;;;7.33;3.37;;;;;;;13.82;100.00;100091.37;5109164;57;1138975;-73
2022/06/20 19:30:43;;;;;;;2.60;2.33;;;;;;;13.79;100.00;100097.47;5106539;57;1138911;-74
2022/06/20 19:35:56;;;;;;;2.33;2.10;;;;;;;13.78;100.00;100099.78;5174802;56;1138962;-73
2022/06/20 19:41:09;;;;;;;;;;;;;;;13.78;100.00;100097.13;5191812;56;1139183;-75
2022/06/20 19:46:39;;;;;;;4.93;2.73;;;;;;;13.75;100.00;100088.14;5042086;58;976348;-73
2022/06/20 19:51:54;;;;;;;4.43;3.20;;;;;;;13.72;100.00;100084.80;4805139;61;1135009;-73
2022/06/20 19:57:19;;;;;;;3.65;3.05;;;;;;;13.64;100.00;100089.17;4891150;60;1141349;-74
2022/06/20 20:02:33;;;;;;;6.07;3.70;;;;;;;13.63;100.00;100092.81;4864017;60;1141255;-75
2022/06/20 20:07:54;;;;;;;3.77;3.40;;;;;;;13.60;100.00;100095.76;4873988;60;1141716;-75
2022/06/20 20:13:09;;;;;;;5.27;3.63;;;;;;;13.59;100.00;100094.95;4809042;61;1141420;-73
2022/06/20 20:18:40;;;;;;;6.17;4.23;;;;;;;13.62;100.00;100096.45;4875906;60;1141116;-74
2022/06/20 20:24:03;;;;;;;11.40;4.03;;;;;;;13.62;100.00;100093.30;4879396;60;1141172;-73
2022/06/20 20:29:41;;;;;;;5.53;3.83;;;;;;;13.61;100.00;100097.43;5025968;58;1143168;-73
2022/06/20 20:35:01;;;;;;;4.27;3.57;;;;;;;13.61;100.00;100090.30;5023801;58;1141183;-74
2022/06/20 20:40:31;;;;;;;6.20;3.83;;;;;;;13.62;100.00;100098.61;5064556;56;1141194;-72
2022/06/20 20:46:35;;;;;;;6.20;3.60;;;;;;;13.63;100.00;100084.34;5200811;56;1139019;-73
2022/06/20 20:51:44;;;;;;;4.20;3.80;;;;;;;13.66;100.00;100096.02;5095906;57;1139166;-74
2022/06/20 20:57:05;;;;;;;9.57;3.90;;;;;;;13.62;100.00;100099.94;5159168;57;1136957;-74
2022/06/20 21:02:21;;;;;;;4.73;3.33;;;;;;;13.63;100.00;100087.00;5162327;57;1141112;-73
2022/06/20 21:07:29;;;;;;;;;;;;;;;13.61;100.00;100081.48;5161829;56;1141151;-73
2022/06/20 21:12:50;;;;;;;6.00;3.00;;;;;;;13.64;100.00;100086.51;5148355;57;978454;-73
2022/06/20 21:18:05;;;;;;;11.63;4.27;;;;;;;13.64;100.00;100087.84;5077495;57;1138971;-74
2022/06/20 21:23:11;;;;;;;5.93;4.33;;;;;;;13.63;100.00;100098.13;5099003;57;1143184;-72
2022/06/20 21:28:20;;;;;;;6.40;3.30;;;;;;;13.62;100.00;100096.45;5136436;57;1141226;-73
2022/06/20 21:33:28;;;;;;;3.58;2.95;;;;;;;13.58;100.00;100101.73;5123836;56;1141293;-73
2022/06/20 21:38:38;;;;;;;6.07;2.57;;;;;;;13.50;100.00;100103.80;5132968;57;1141175;-73
2022/06/20 21:43:44;;;;;;;9.43;3.20;;;;;;;13.43;100.00;100113.84;5147233;57;1141134;-73
2022/06/20 21:48:53;;;;;;;5.27;2.20;;;;;;;13.32;100.00;100118.34;5100966;57;1141077;-73
2022/06/20 21:54:09;;;;;;;2.17;1.80;;;;;;;13.24;100.00;100112.94;5109849;57;1141018;-73
2022/06/20 21:59:38;;;;;;;2.33;1.53;;;;;;;13.19;100.00;100103.23;5103742;57;1140968;-74
2022/06/20 22:04:48;;;;;;;5.50;2.10;;;;;;;13.06;100.00;100085.44;5138344;57;1141063;-72
2022/06/20 22:10:01;;;;;;;5.83;2.00;;;;;;;13.01;100.00;100100.47;5157794;57;1141140;-72
2022/06/20 22:15:11;;;;;;;4.63;1.63;;;;;;;12.97;100.00;100083.18;5119229;57;1141160;-72
2022/06/20 22:20:36;;;;;;;1.53;1.43;;;;;;;12.93;100.00;100083.11;4980300;58;1141358;-73
2022/06/20 22:25:52;;;;;;;4.30;1.53;;;;;;;12.95;100.00;100082.97;5167171;56;1139164;-72
2022/06/20 22:31:03;;;;;;;5.00;1.67;;;;;;;12.91;100.00;100080.25;5196370;56;1139150;-72
2022/06/20 22:36:12;;;;;;;2.35;1.50;;;;;;;12.84;100.00;100085.77;5224413;56;1139312;-73
2022/06/20 22:41:24;;;;;;;1.10;1.10;;;;;;;12.78;100.00;100086.37;5205404;56;1139021;-72
2022/06/20 22:46:32;;;;;;;;;;;;;;;12.73;100.00;100078.83;5230200;56;1139042;-72
2022/06/20 22:51:38;;;;;;;2.33;1.33;;;;;;;12.64;100.00;100079.21;5229870;56;976481;-72
2022/06/20 22:56:57;;;;;;;5.40;1.77;;;;;;;12.58;100.00;100070.48;5227089;56;1136936;-73
2022/06/20 23:02:16;;;;;;;5.10;1.43;;;;;;;12.51;100.00;100077.84;5226950;56;1139297;-71
2022/06/20 23:07:22;;;;;;;5.00;1.27;;;;;;;12.48;100.00;100075.47;5188322;56;1137097;-72
2022/06/20 23:12:28;;;;;;;6.47;1.70;;;;;;;12.43;100.00;100064.44;5225882;56;1209980;-72
2022/06/20 23:23:15;;;;;;;3.47;2.07;;;;;;;12.37;100.00;100063.21;5141292;57;1141049;-72
2022/06/20 23:28:21;;;;;;;1.60;1.50;;;;;;;12.34;100.00;100068.79;5142005;57;1141193;-71
2022/06/20 23:33:26;;;;;;;5.20;1.40;;;;;;;12.31;100.00;100073.05;5107842;57;1141097;-72
2022/06/20 23:38:37;;;;;;;3.80;2.20;;;;;;;12.32;100.00;100054.34;5175921;56;1141140;-71
2022/06/20 23:43:43;;;;;;;2.83;1.50;;;;;;;12.33;100.00;100052.53;5228128;56;1141155;-72
2022/06/20 23:48:49;;;;;;;2.07;1.77;;;;;;;12.34;100.00;100052.88;5205718;56;1141179;-72
2022/06/20 23:53:55;;;;;;;2.83;2.03;;;;;;;12.33;100.00;100051.20;5134243;57;1141338;-71
2022/06/20 23:59:02;;;;;;;6.67;1.90;;;;;;;12.30;100.00;100047.50;5141960;57;1141290;-71
